sensor_id;sensor_type;location;lat;lon;timestamp;pressure;altitude;pressure_sealevel;temperature;humidity
70971;BME280;58632;51.718;19.446;2023-06-24T00:01:50;99702.52;;;18.89;100.00
70971;BME280;58632;51.718;19.446;2023-06-24T00:04:15;99712.67;;;18.91;100.00
70971;BME280;58632;51.718;19.446;2023-06-24T00:06:43;99716.45;;;18.95;100.00
70971;BME280;58632;51.718;19.446;2023-06-24T00:09:10;99723.51;;;18.94;100.00
70971;BME280;58632;51.718;19.446;2023-06-24T00:11:36;99724.35;;;18.92;100.00
70971;BME280;58632;51.718;19.446;2023-06-24T00:14:02;99730.26;;;18.89;100.00
70971;BME280;58632;51.718;19.446;2023-06-24T00:16:27;99735.29;;;18.85;100.00
70971;BME280;58632;51.718;19.446;2023-06-24T00:18:56;99740.02;;;18.82;100.00
70971;BME280;58632;51.718;19.446;2023-06-24T00:21:26;99739.33;;;18.78;100.00
70971;BME280;58632;51.718;19.446;2023-06-24T00:23:58;99738.95;;;18.79;100.00
70971;BME280;58632;51.718;19.446;2023-06-24T00:26:27;99743.77;;;18.79;100.00
70971;BME280;58632;51.718;19.446;2023-06-24T00:28:53;99740.75;;;18.78;100.00
70971;BME280;58632;51.718;19.446;2023-06-24T00:31:19;99743.98;;;18.77;100.00
70971;BME280;58632;51.718;19.446;2023-06-24T00:33:48;99747.10;;;18.75;100.00
70971;BME280;58632;51.718;19.446;2023-06-24T00:36:17;99747.65;;;18.73;100.00
70971;BME280;58632;51.718;19.446;2023-06-24T00:38:43;99748.64;;;18.71;100.00
70971;BME280;58632;51.718;19.446;2023-06-24T00:41:09;99750.34;;;18.73;100.00
70971;BME280;58632;51.718;19.446;2023-06-24T00:43:35;99748.27;;;18.78;100.00
70971;BME280;58632;51.718;19.446;2023-06-24T00:46:00;99747.02;;;18.79;100.00
70971;BME280;58632;51.718;19.446;2023-06-24T00:48:26;99748.21;;;18.79;100.00
70971;BME280;58632;51.718;19.446;2023-06-24T00:50:51;99747.58;;;18.78;100.00
70971;BME280;58632;51.718;19.446;2023-06-24T00:53:19;99749.82;;;18.80;100.00
70971;BME280;58632;51.718;19.446;2023-06-24T00:55:46;99745.19;;;18.78;100.00
70971;BME280;58632;51.718;19.446;2023-06-24T00:58:13;99741.76;;;18.77;100.00
70971;BME280;58632;51.718;19.446;2023-06-24T01:00:47;99743.93;;;18.74;100.00
70971;BME280;58632;51.718;19.446;2023-06-24T01:03:25;99738.23;;;18.74;100.00
70971;BME280;58632;51.718;19.446;2023-06-24T01:05:51;99731.00;;;18.74;100.00
70971;BME280;58632;51.718;19.446;2023-06-24T01:08:18;99727.14;;;18.69;100.00
70971;BME280;58632;51.718;19.446;2023-06-24T01:10:45;99729.81;;;18.66;100.00
70971;BME280;58632;51.718;19.446;2023-06-24T01:13:10;99730.05;;;18.66;100.00
70971;BME280;58632;51.718;19.446;2023-06-24T01:15:36;99728.98;;;18.64;100.00
70971;BME280;58632;51.718;19.446;2023-06-24T01:18:13;99727.45;;;18.60;100.00
70971;BME280;58632;51.718;19.446;2023-06-24T01:20:55;99725.66;;;18.58;100.00
70971;BME280;58632;51.718;19.446;2023-06-24T01:26:04;99727.35;;;18.59;100.00
70971;BME280;58632;51.718;19.446;2023-06-24T01:36:57;99740.20;;;18.55;100.00
70971;BME280;58632;51.718;19.446;2023-06-24T01:39:26;99749.33;;;18.56;100.00
70971;BME280;58632;51.718;19.446;2023-06-24T01:42:00;99756.25;;;18.58;100.00
70971;BME280;58632;51.718;19.446;2023-06-24T01:44:29;99763.60;;;18.62;100.00
70971;BME280;58632;51.718;19.446;2023-06-24T01:46:57;99766.64;;;18.66;100.00
70971;BME280;58632;51.718;19.446;2023-06-24T01:49:28;99763.80;;;18.67;100.00
70971;BME280;58632;51.718;19.446;2023-06-24T01:51:57;99769.75;;;18.67;100.00
70971;BME280;58632;51.718;19.446;2023-06-24T01:54:26;99775.00;;;18.68;100.00
70971;BME280;58632;51.718;19.446;2023-06-24T01:56:54;99776.42;;;18.68;100.00
70971;BME280;58632;51.718;19.446;2023-06-24T01:59:21;99779.31;;;18.65;100.00
70971;BME280;58632;51.718;19.446;2023-06-24T02:01:48;99783.86;;;18.61;100.00
70971;BME280;58632;51.718;19.446;2023-06-24T02:04:17;99783.04;;;18.53;100.00
70971;BME280;58632;51.718;19.446;2023-06-24T02:06:44;99785.79;;;18.51;100.00
70971;BME280;58632;51.718;19.446;2023-06-24T02:09:12;99789.81;;;18.50;100.00
70971;BME280;58632;51.718;19.446;2023-06-24T02:11:39;99790.98;;;18.50;100.00
70971;BME280;58632;51.718;19.446;2023-06-24T02:14:05;99792.80;;;18.48;100.00
70971;BME280;58632;51.718;19.446;2023-06-24T02:16:33;99792.77;;;18.45;100.00
70971;BME280;58632;51.718;19.446;2023-06-24T02:19:00;99791.30;;;18.43;100.00
70971;BME280;58632;51.718;19.446;2023-06-24T02:21:27;99795.73;;;18.43;100.00
70971;BME280;58632;51.718;19.446;2023-06-24T02:23:54;99799.75;;;18.41;100.00
70971;BME280;58632;51.718;19.446;2023-06-24T02:26:20;99804.38;;;18.43;100.00
70971;BME280;58632;51.718;19.446;2023-06-24T02:28:49;99809.95;;;18.46;100.00
70971;BME280;58632;51.718;19.446;2023-06-24T02:31:16;99811.04;;;18.43;100.00
70971;BME280;58632;51.718;19.446;2023-06-24T02:33:42;99812.70;;;18.44;100.00
70971;BME280;58632;51.718;19.446;2023-06-24T02:36:08;99813.57;;;18.45;100.00
70971;BME280;58632;51.718;19.446;2023-06-24T02:38:33;99819.67;;;18.44;100.00
70971;BME280;58632;51.718;19.446;2023-06-24T02:40:59;99822.58;;;18.43;100.00
70971;BME280;58632;51.718;19.446;2023-06-24T02:43:25;99827.27;;;18.43;100.00
70971;BME280;58632;51.718;19.446;2023-06-24T02:45:51;99821.98;;;18.46;100.00
70971;BME280;58632;51.718;19.446;2023-06-24T02:48:17;99826.72;;;18.49;100.00
70971;BME280;58632;51.718;19.446;2023-06-24T02:50:45;99830.03;;;18.48;100.00
70971;BME280;58632;51.718;19.446;2023-06-24T02:53:13;99826.83;;;18.46;100.00
70971;BME280;58632;51.718;19.446;2023-06-24T02:55:40;99832.11;;;18.39;100.00
70971;BME280;58632;51.718;19.446;2023-06-24T02:58:08;99832.30;;;18.36;100.00
70971;BME280;58632;51.718;19.446;2023-06-24T03:00:35;99829.64;;;18.33;100.00
70971;BME280;58632;51.718;19.446;2023-06-24T03:03:02;99831.92;;;18.31;100.00
70971;BME280;58632;51.718;19.446;2023-06-24T03:05:30;99828.48;;;18.34;100.00
70971;BME280;58632;51.718;19.446;2023-06-24T03:07:57;99832.83;;;18.38;100.00
70971;BME280;58632;51.718;19.446;2023-06-24T03:10:23;99834.47;;;18.43;100.00
70971;BME280;58632;51.718;19.446;2023-06-24T03:12:50;99837.16;;;18.42;100.00
70971;BME280;58632;51.718;19.446;2023-06-24T03:15:15;99837.21;;;18.40;100.00
70971;BME280;58632;51.718;19.446;2023-06-24T03:17:41;99841.88;;;18.40;100.00
70971;BME280;58632;51.718;19.446;2023-06-24T03:20:07;99841.86;;;18.40;100.00
70971;BME280;58632;51.718;19.446;2023-06-24T03:22:34;99845.52;;;18.40;100.00
70971;BME280;58632;51.718;19.446;2023-06-24T03:24:59;99846.02;;;18.42;100.00
70971;BME280;58632;51.718;19.446;2023-06-24T03:27:27;99848.30;;;18.47;100.00
70971;BME280;58632;51.718;19.446;2023-06-24T03:29:53;99850.05;;;18.52;100.00
70971;BME280;58632;51.718;19.446;2023-06-24T03:32:18;99852.77;;;18.53;100.00
70971;BME280;58632;51.718;19.446;2023-06-24T03:34:44;99850.63;;;18.54;100.00
70971;BME280;58632;51.718;19.446;2023-06-24T03:37:10;99856.63;;;18.53;100.00
70971;BME280;58632;51.718;19.446;2023-06-24T03:39:36;99851.98;;;18.53;100.00
70971;BME280;58632;51.718;19.446;2023-06-24T03:42:01;99848.48;;;18.53;100.00
70971;BME280;58632;51.718;19.446;2023-06-24T03:44:27;99849.40;;;18.57;100.00
70971;BME280;58632;51.718;19.446;2023-06-24T03:46:52;99846.70;;;18.61;100.00
70971;BME280;58632;51.718;19.446;2023-06-24T03:49:18;99845.36;;;18.62;100.00
70971;BME280;58632;51.718;19.446;2023-06-24T03:51:44;99841.36;;;18.66;100.00
70971;BME280;58632;51.718;19.446;2023-06-24T03:54:10;99839.42;;;18.69;100.00
70971;BME280;58632;51.718;19.446;2023-06-24T03:56:38;99838.74;;;18.76;100.00
70971;BME280;58632;51.718;19.446;2023-06-24T03:59:06;99841.15;;;18.83;100.00
70971;BME280;58632;51.718;19.446;2023-06-24T04:01:33;99844.54;;;18.93;100.00
70971;BME280;58632;51.718;19.446;2023-06-24T04:03:58;99842.95;;;19.00;100.00
70971;BME280;58632;51.718;19.446;2023-06-24T04:06:24;99844.86;;;19.07;100.00
70971;BME280;58632;51.718;19.446;2023-06-24T04:08:50;99851.21;;;19.14;100.00
70971;BME280;58632;51.718;19.446;2023-06-24T04:11:17;99851.98;;;19.18;100.00
70971;BME280;58632;51.718;19.446;2023-06-24T04:13:45;99854.23;;;19.22;100.00
70971;BME280;58632;51.718;19.446;2023-06-24T04:16:13;99856.16;;;19.23;100.00
70971;BME280;58632;51.718;19.446;2023-06-24T04:18:38;99858.18;;;19.27;100.00
70971;BME280;58632;51.718;19.446;2023-06-24T04:21:05;99857.54;;;19.34;100.00
70971;BME280;58632;51.718;19.446;2023-06-24T04:23:34;99858.77;;;19.37;100.00
70971;BME280;58632;51.718;19.446;2023-06-24T04:26:00;99859.78;;;19.42;100.00
70971;BME280;58632;51.718;19.446;2023-06-24T04:28:26;99864.44;;;19.48;100.00
70971;BME280;58632;51.718;19.446;2023-06-24T04:30:52;99867.29;;;19.54;100.00
70971;BME280;58632;51.718;19.446;2023-06-24T04:33:17;99870.46;;;19.54;100.00
70971;BME280;58632;51.718;19.446;2023-06-24T04:35:43;99872.84;;;19.54;100.00
70971;BME280;58632;51.718;19.446;2023-06-24T04:38:09;99871.38;;;19.51;100.00
70971;BME280;58632;51.718;19.446;2023-06-24T04:40:35;99878.29;;;19.53;100.00
70971;BME280;58632;51.718;19.446;2023-06-24T04:43:01;99886.54;;;19.58;100.00
70971;BME280;58632;51.718;19.446;2023-06-24T04:45:27;99888.69;;;19.66;100.00
70971;BME280;58632;51.718;19.446;2023-06-24T04:47:55;99894.10;;;19.73;100.00
70971;BME280;58632;51.718;19.446;2023-06-24T04:50:21;99896.17;;;19.81;100.00
70971;BME280;58632;51.718;19.446;2023-06-24T04:52:52;99894.28;;;19.91;100.00
70971;BME280;58632;51.718;19.446;2023-06-24T04:55:21;99898.00;;;19.99;100.00
70971;BME280;58632;51.718;19.446;2023-06-24T04:57:47;99898.14;;;19.97;100.00
70971;BME280;58632;51.718;19.446;2023-06-24T05:00:13;99900.69;;;19.97;100.00
70971;BME280;58632;51.718;19.446;2023-06-24T05:02:39;99902.08;;;20.04;100.00
70971;BME280;58632;51.718;19.446;2023-06-24T05:05:05;99905.09;;;20.10;100.00
70971;BME280;58632;51.718;19.446;2023-06-24T05:07:31;99906.58;;;20.16;100.00
70971;BME280;58632;51.718;19.446;2023-06-24T05:10:01;99912.77;;;20.18;100.00
70971;BME280;58632;51.718;19.446;2023-06-24T05:12:27;99914.73;;;20.15;100.00
70971;BME280;58632;51.718;19.446;2023-06-24T05:14:52;99915.98;;;20.13;100.00
70971;BME280;58632;51.718;19.446;2023-06-24T05:17:19;99920.15;;;20.15;100.00
70971;BME280;58632;51.718;19.446;2023-06-24T05:19:44;99922.52;;;20.14;100.00
70971;BME280;58632;51.718;19.446;2023-06-24T05:22:10;99927.52;;;20.13;100.00
70971;BME280;58632;51.718;19.446;2023-06-24T05:24:35;99932.95;;;20.08;100.00
70971;BME280;58632;51.718;19.446;2023-06-24T05:27:07;99936.73;;;20.05;100.00
70971;BME280;58632;51.718;19.446;2023-06-24T05:29:34;99936.25;;;19.97;100.00
70971;BME280;58632;51.718;19.446;2023-06-24T05:31:59;99939.21;;;19.92;100.00
70971;BME280;58632;51.718;19.446;2023-06-24T05:34:33;99943.45;;;19.87;100.00
70971;BME280;58632;51.718;19.446;2023-06-24T05:37:00;99946.27;;;19.89;100.00
70971;BME280;58632;51.718;19.446;2023-06-24T05:39:26;99947.96;;;19.93;100.00
70971;BME280;58632;51.718;19.446;2023-06-24T05:41:52;99945.45;;;19.96;100.00
70971;BME280;58632;51.718;19.446;2023-06-24T05:44:21;99944.03;;;19.97;100.00
70971;BME280;58632;51.718;19.446;2023-06-24T05:46:48;99945.46;;;20.06;100.00
70971;BME280;58632;51.718;19.446;2023-06-24T05:49:13;99947.20;;;20.20;100.00
70971;BME280;58632;51.718;19.446;2023-06-24T05:51:41;99950.35;;;20.35;100.00
70971;BME280;58632;51.718;19.446;2023-06-24T05:54:07;99947.36;;;20.50;100.00
70971;BME280;58632;51.718;19.446;2023-06-24T05:56:35;99950.51;;;20.61;100.00
70971;BME280;58632;51.718;19.446;2023-06-24T05:59:02;99952.48;;;20.71;100.00
70971;BME280;58632;51.718;19.446;2023-06-24T06:01:27;99955.56;;;20.79;100.00
70971;BME280;58632;51.718;19.446;2023-06-24T06:03:55;99955.09;;;20.90;100.00
70971;BME280;58632;51.718;19.446;2023-06-24T06:06:21;99962.46;;;21.01;100.00
70971;BME280;58632;51.718;19.446;2023-06-24T06:08:47;99966.16;;;21.07;100.00
70971;BME280;58632;51.718;19.446;2023-06-24T06:11:15;99969.99;;;21.10;100.00
70971;BME280;58632;51.718;19.446;2023-06-24T06:13:40;99973.19;;;21.14;100.00
70971;BME280;58632;51.718;19.446;2023-06-24T06:16:06;99974.30;;;21.14;100.00
70971;BME280;58632;51.718;19.446;2023-06-24T06:18:32;99977.02;;;21.16;100.00
70971;BME280;58632;51.718;19.446;2023-06-24T06:20:58;99980.91;;;21.13;100.00
70971;BME280;58632;51.718;19.446;2023-06-24T06:23:23;99979.67;;;21.07;100.00
70971;BME280;58632;51.718;19.446;2023-06-24T06:25:50;99980.07;;;21.06;100.00
70971;BME280;58632;51.718;19.446;2023-06-24T06:28:16;99979.79;;;21.14;100.00
70971;BME280;58632;51.718;19.446;2023-06-24T06:30:41;99983.67;;;21.25;100.00
70971;BME280;58632;51.718;19.446;2023-06-24T06:33:10;99988.64;;;21.33;100.00
70971;BME280;58632;51.718;19.446;2023-06-24T06:35:36;99990.48;;;21.33;100.00
70971;BME280;58632;51.718;19.446;2023-06-24T06:38:01;99989.90;;;21.27;100.00
70971;BME280;58632;51.718;19.446;2023-06-24T06:40:27;99992.31;;;21.21;100.00
70971;BME280;58632;51.718;19.446;2023-06-24T06:42:53;99994.60;;;21.12;100.00
70971;BME280;58632;51.718;19.446;2023-06-24T06:45:19;99992.02;;;21.11;100.00
70971;BME280;58632;51.718;19.446;2023-06-24T06:47:45;99996.01;;;21.13;100.00
70971;BME280;58632;51.718;19.446;2023-06-24T06:50:10;99995.25;;;21.16;100.00
70971;BME280;58632;51.718;19.446;2023-06-24T06:52:36;100000.72;;;21.28;100.00
70971;BME280;58632;51.718;19.446;2023-06-24T06:55:01;100001.89;;;21.38;100.00
70971;BME280;58632;51.718;19.446;2023-06-24T06:57:27;99998.46;;;21.39;100.00
70971;BME280;58632;51.718;19.446;2023-06-24T06:59:53;100000.02;;;21.42;100.00
70971;BME280;58632;51.718;19.446;2023-06-24T07:02:18;100002.55;;;21.53;100.00
70971;BME280;58632;51.718;19.446;2023-06-24T07:04:44;100005.95;;;21.68;100.00
70971;BME280;58632;51.718;19.446;2023-06-24T07:07:10;100002.14;;;21.74;100.00
70971;BME280;58632;51.718;19.446;2023-06-24T07:09:37;100006.45;;;21.74;100.00
70971;BME280;58632;51.718;19.446;2023-06-24T07:12:09;100006.63;;;21.77;100.00
70971;BME280;58632;51.718;19.446;2023-06-24T07:14:34;100005.73;;;21.73;100.00
70971;BME280;58632;51.718;19.446;2023-06-24T07:17:00;100000.89;;;21.75;100.00
70971;BME280;58632;51.718;19.446;2023-06-24T07:19:25;99996.14;;;21.85;100.00
70971;BME280;58632;51.718;19.446;2023-06-24T07:21:51;99994.56;;;21.88;100.00
70971;BME280;58632;51.718;19.446;2023-06-24T07:24:17;99995.76;;;21.87;100.00
70971;BME280;58632;51.718;19.446;2023-06-24T07:26:43;99997.96;;;21.85;100.00
70971;BME280;58632;51.718;19.446;2023-06-24T07:29:08;99995.48;;;21.80;100.00
70971;BME280;58632;51.718;19.446;2023-06-24T07:31:35;100003.27;;;21.75;100.00
70971;BME280;58632;51.718;19.446;2023-06-24T07:34:00;100003.17;;;21.70;100.00
70971;BME280;58632;51.718;19.446;2023-06-24T07:36:26;100012.06;;;21.63;100.00
70971;BME280;58632;51.718;19.446;2023-06-24T07:38:51;100010.60;;;21.56;100.00
70971;BME280;58632;51.718;19.446;2023-06-24T07:41:17;100014.98;;;21.58;100.00
70971;BME280;58632;51.718;19.446;2023-06-24T07:43:42;100012.05;;;21.59;100.00
70971;BME280;58632;51.718;19.446;2023-06-24T07:46:08;100012.27;;;21.55;100.00
70971;BME280;58632;51.718;19.446;2023-06-24T07:48:34;100012.50;;;21.55;100.00
70971;BME280;58632;51.718;19.446;2023-06-24T07:50:59;100015.88;;;21.60;100.00
70971;BME280;58632;51.718;19.446;2023-06-24T07:53:25;100020.05;;;21.68;100.00
70971;BME280;58632;51.718;19.446;2023-06-24T07:55:50;100018.39;;;21.72;100.00
70971;BME280;58632;51.718;19.446;2023-06-24T07:58:16;100020.14;;;21.73;100.00
70971;BME280;58632;51.718;19.446;2023-06-24T08:00:42;100022.46;;;21.77;100.00
70971;BME280;58632;51.718;19.446;2023-06-24T08:03:08;100025.73;;;21.76;100.00
70971;BME280;58632;51.718;19.446;2023-06-24T08:05:33;100023.95;;;21.69;100.00
70971;BME280;58632;51.718;19.446;2023-06-24T08:07:59;100030.66;;;21.58;100.00
70971;BME280;58632;51.718;19.446;2023-06-24T08:10:25;100029.29;;;21.39;100.00
70971;BME280;58632;51.718;19.446;2023-06-24T08:12:50;100034.64;;;21.20;100.00
70971;BME280;58632;51.718;19.446;2023-06-24T08:15:16;100039.45;;;21.00;100.00
70971;BME280;58632;51.718;19.446;2023-06-24T08:17:42;100039.12;;;20.89;100.00
70971;BME280;58632;51.718;19.446;2023-06-24T08:20:08;100048.50;;;20.88;100.00
70971;BME280;58632;51.718;19.446;2023-06-24T08:22:36;100049.58;;;20.94;100.00
70971;BME280;58632;51.718;19.446;2023-06-24T08:25:01;100056.56;;;20.92;100.00
70971;BME280;58632;51.718;19.446;2023-06-24T08:27:27;100054.89;;;20.91;100.00
70971;BME280;58632;51.718;19.446;2023-06-24T08:29:53;100055.64;;;20.96;100.00
70971;BME280;58632;51.718;19.446;2023-06-24T08:32:18;100061.02;;;21.05;100.00
70971;BME280;58632;51.718;19.446;2023-06-24T08:34:44;100062.96;;;21.09;100.00
70971;BME280;58632;51.718;19.446;2023-06-24T08:37:10;100063.19;;;21.07;100.00
70971;BME280;58632;51.718;19.446;2023-06-24T08:39:36;100066.00;;;21.09;100.00
70971;BME280;58632;51.718;19.446;2023-06-24T08:42:04;100068.88;;;21.11;100.00
70971;BME280;58632;51.718;19.446;2023-06-24T08:44:32;100065.98;;;21.09;100.00
70971;BME280;58632;51.718;19.446;2023-06-24T08:46:57;100067.30;;;21.14;100.00
70971;BME280;58632;51.718;19.446;2023-06-24T08:51:53;100065.94;;;21.46;100.00
70971;BME280;58632;51.718;19.446;2023-06-24T08:54:20;100070.14;;;21.70;100.00
70971;BME280;58632;51.718;19.446;2023-06-24T08:56:46;100075.20;;;22.01;100.00
70971;BME280;58632;51.718;19.446;2023-06-24T08:59:12;100075.96;;;22.31;100.00
70971;BME280;58632;51.718;19.446;2023-06-24T09:01:38;100078.66;;;22.63;100.00
70971;BME280;58632;51.718;19.446;2023-06-24T09:04:04;100081.31;;;22.94;100.00
70971;BME280;58632;51.718;19.446;2023-06-24T09:06:32;100080.68;;;23.18;100.00
70971;BME280;58632;51.718;19.446;2023-06-24T09:08:58;100078.44;;;23.24;100.00
70971;BME280;58632;51.718;19.446;2023-06-24T09:11:28;100082.34;;;23.33;100.00
70971;BME280;58632;51.718;19.446;2023-06-24T09:13:58;100078.01;;;23.41;100.00
70971;BME280;58632;51.718;19.446;2023-06-24T09:16:27;100081.67;;;23.48;100.00
70971;BME280;58632;51.718;19.446;2023-06-24T09:18:54;100086.69;;;23.52;100.00
70971;BME280;58632;51.718;19.446;2023-06-24T09:21:27;100082.20;;;23.52;100.00
70971;BME280;58632;51.718;19.446;2023-06-24T09:23:54;100084.42;;;23.60;100.00
70971;BME280;58632;51.718;19.446;2023-06-24T09:26:23;100080.98;;;23.78;100.00
70971;BME280;58632;51.718;19.446;2023-06-24T09:28:49;100084.59;;;23.92;100.00
70971;BME280;58632;51.718;19.446;2023-06-24T09:31:15;100083.33;;;24.05;100.00
70971;BME280;58632;51.718;19.446;2023-06-24T09:33:40;100079.60;;;24.11;100.00
70971;BME280;58632;51.718;19.446;2023-06-24T09:36:06;100084.30;;;24.19;100.00
70971;BME280;58632;51.718;19.446;2023-06-24T09:38:35;100078.90;;;24.30;100.00
70971;BME280;58632;51.718;19.446;2023-06-24T09:41:05;100076.73;;;24.44;100.00
70971;BME280;58632;51.718;19.446;2023-06-24T09:43:34;100075.13;;;24.49;100.00
70971;BME280;58632;51.718;19.446;2023-06-24T09:46:10;100076.45;;;24.55;100.00
70971;BME280;58632;51.718;19.446;2023-06-24T09:48:35;100076.09;;;24.60;100.00
70971;BME280;58632;51.718;19.446;2023-06-24T09:51:04;100077.19;;;24.75;100.00
70971;BME280;58632;51.718;19.446;2023-06-24T09:53:34;100078.74;;;24.90;100.00
70971;BME280;58632;51.718;19.446;2023-06-24T09:56:01;100076.12;;;25.06;100.00
70971;BME280;58632;51.718;19.446;2023-06-24T09:58:31;100078.48;;;25.23;100.00
70971;BME280;58632;51.718;19.446;2023-06-24T10:01:01;100074.85;;;25.33;100.00
70971;BME280;58632;51.718;19.446;2023-06-24T10:03:28;100074.48;;;25.29;100.00
70971;BME280;58632;51.718;19.446;2023-06-24T10:05:55;100071.70;;;25.37;100.00
70971;BME280;58632;51.718;19.446;2023-06-24T10:08:20;100073.02;;;25.40;100.00
70971;BME280;58632;51.718;19.446;2023-06-24T10:10:46;100079.98;;;25.42;100.00
70971;BME280;58632;51.718;19.446;2023-06-24T10:13:12;100078.50;;;25.38;100.00
70971;BME280;58632;51.718;19.446;2023-06-24T10:15:38;100078.39;;;25.41;100.00
70971;BME280;58632;51.718;19.446;2023-06-24T10:20:51;100078.73;;;25.32;100.00
70971;BME280;58632;51.718;19.446;2023-06-24T10:23:17;100080.26;;;25.38;100.00
70971;BME280;58632;51.718;19.446;2023-06-24T10:25:49;100078.84;;;25.35;100.00
70971;BME280;58632;51.718;19.446;2023-06-24T10:28:15;100077.42;;;25.33;100.00
70971;BME280;58632;51.718;19.446;2023-06-24T10:30:54;100072.84;;;25.36;100.00
70971;BME280;58632;51.718;19.446;2023-06-24T10:33:19;100074.52;;;25.36;100.00
70971;BME280;58632;51.718;19.446;2023-06-24T10:35:45;100070.27;;;25.36;99.61
70971;BME280;58632;51.718;19.446;2023-06-24T10:38:11;100071.52;;;25.47;97.26
70971;BME280;58632;51.718;19.446;2023-06-24T10:40:41;100073.06;;;25.52;96.59
70971;BME280;58632;51.718;19.446;2023-06-24T10:45:52;100074.27;;;25.74;97.62
70971;BME280;58632;51.718;19.446;2023-06-24T10:48:18;100074.27;;;25.89;95.39
70971;BME280;58632;51.718;19.446;2023-06-24T10:50:47;100071.09;;;25.86;92.55
70971;BME280;58632;51.718;19.446;2023-06-24T10:53:13;100074.71;;;25.83;95.88
70971;BME280;58632;51.718;19.446;2023-06-24T10:55:39;100074.03;;;25.89;93.57
70971;BME280;58632;51.718;19.446;2023-06-24T10:58:15;100071.91;;;25.91;92.02
70971;BME280;58632;51.718;19.446;2023-06-24T11:00:41;100071.97;;;25.93;90.22
70971;BME280;58632;51.718;19.446;2023-06-24T11:03:12;100079.41;;;26.06;92.21
70971;BME280;58632;51.718;19.446;2023-06-24T11:05:40;100074.95;;;26.16;89.82
70971;BME280;58632;51.718;19.446;2023-06-24T11:08:06;100074.52;;;26.18;88.73
70971;BME280;58632;51.718;19.446;2023-06-24T11:10:47;100074.56;;;26.21;88.77
70971;BME280;58632;51.718;19.446;2023-06-24T11:13:13;100076.34;;;26.27;87.99
70971;BME280;58632;51.718;19.446;2023-06-24T11:15:39;100077.41;;;26.12;86.24
70971;BME280;58632;51.718;19.446;2023-06-24T11:18:08;100079.33;;;26.13;90.86
70971;BME280;58632;51.718;19.446;2023-06-24T11:20:36;100077.39;;;26.21;92.12
70971;BME280;58632;51.718;19.446;2023-06-24T11:23:01;100083.94;;;26.28;87.78
70971;BME280;58632;51.718;19.446;2023-06-24T11:25:27;100090.28;;;26.09;82.28
70971;BME280;58632;51.718;19.446;2023-06-24T11:27:53;100087.95;;;25.82;82.27
70971;BME280;58632;51.718;19.446;2023-06-24T11:30:18;100090.42;;;25.68;86.76
70971;BME280;58632;51.718;19.446;2023-06-24T11:32:44;100090.26;;;25.68;88.03
70971;BME280;58632;51.718;19.446;2023-06-24T11:35:12;100089.17;;;25.66;88.10
70971;BME280;58632;51.718;19.446;2023-06-24T11:37:41;100090.70;;;25.58;89.64
70971;BME280;58632;51.718;19.446;2023-06-24T11:40:09;100094.49;;;25.55;92.01
70971;BME280;58632;51.718;19.446;2023-06-24T11:42:39;100093.13;;;25.48;89.77
70971;BME280;58632;51.718;19.446;2023-06-24T11:45:12;100100.77;;;25.25;86.86
70971;BME280;58632;51.718;19.446;2023-06-24T11:47:39;100095.77;;;24.92;88.54
70971;BME280;58632;51.718;19.446;2023-06-24T11:50:06;100096.50;;;24.57;90.00
70971;BME280;58632;51.718;19.446;2023-06-24T11:52:33;100098.89;;;24.26;91.93
70971;BME280;58632;51.718;19.446;2023-06-24T11:55:03;100104.08;;;23.96;95.52
70971;BME280;58632;51.718;19.446;2023-06-24T11:58:02;100108.30;;;23.74;98.88
70971;BME280;58632;51.718;19.446;2023-06-24T12:00:38;100113.38;;;23.44;100.00
70971;BME280;58632;51.718;19.446;2023-06-24T12:03:05;100109.56;;;23.14;100.00
70971;BME280;58632;51.718;19.446;2023-06-24T12:05:33;100108.98;;;22.92;100.00
70971;BME280;58632;51.718;19.446;2023-06-24T12:08:01;100110.31;;;22.73;100.00
70971;BME280;58632;51.718;19.446;2023-06-24T12:10:27;100112.85;;;22.57;100.00
70971;BME280;58632;51.718;19.446;2023-06-24T12:12:55;100114.90;;;22.45;100.00
70971;BME280;58632;51.718;19.446;2023-06-24T12:15:23;100118.20;;;22.30;100.00
70971;BME280;58632;51.718;19.446;2023-06-24T12:17:48;100115.48;;;22.10;100.00
70971;BME280;58632;51.718;19.446;2023-06-24T12:20:15;100117.21;;;21.90;100.00
70971;BME280;58632;51.718;19.446;2023-06-24T12:22:41;100120.31;;;21.73;100.00
70971;BME280;58632;51.718;19.446;2023-06-24T12:25:07;100125.79;;;21.58;100.00
70971;BME280;58632;51.718;19.446;2023-06-24T12:27:32;100125.34;;;21.30;100.00
70971;BME280;58632;51.718;19.446;2023-06-24T12:29:59;100122.30;;;21.18;100.00
70971;BME280;58632;51.718;19.446;2023-06-24T12:32:26;100121.02;;;21.15;100.00
70971;BME280;58632;51.718;19.446;2023-06-24T12:34:51;100123.77;;;21.11;100.00
70971;BME280;58632;51.718;19.446;2023-06-24T12:37:17;100122.44;;;21.05;100.00
70971;BME280;58632;51.718;19.446;2023-06-24T12:39:44;100123.29;;;21.02;100.00
70971;BME280;58632;51.718;19.446;2023-06-24T12:42:12;100122.31;;;21.00;100.00
70971;BME280;58632;51.718;19.446;2023-06-24T12:44:37;100122.95;;;21.02;100.00
70971;BME280;58632;51.718;19.446;2023-06-24T12:47:03;100126.98;;;21.05;100.00
70971;BME280;58632;51.718;19.446;2023-06-24T12:49:29;100127.35;;;21.03;100.00
70971;BME280;58632;51.718;19.446;2023-06-24T12:51:54;100127.91;;;21.03;100.00
70971;BME280;58632;51.718;19.446;2023-06-24T12:54:20;100130.72;;;21.06;100.00